Time;durP1;ratioP1;P1;durP2;ratioP2;P2;SDS_P1;SDS_P2;PMS_P1;PMS_P2;Temp;Humidity;BMP_temperature;BMP_pressure;BME280_temperature;BME280_humidity;BME280_pressure;Samples;Min_cycle;Max_cycle;Signal;HPM_P1;HPM_P2
2023/12/18 00:01:49;;;;;;;1999.90;999.90;;;;;;;-2.47;86.20;98012.97;5095093;28;20502;-62
2023/12/18 00:04:16;;;;;;;1999.90;999.90;;;;;;;-2.47;86.59;98012.13;5095235;28;20048;-63
2023/12/18 00:06:44;;;;;;;1999.90;999.90;;;;;;;-2.39;86.81;98014.94;5095274;28;20133;-65
2023/12/18 00:09:11;;;;;;;1999.90;999.90;;;;;;;-2.39;86.35;98009.81;5094946;28;20047;-65
2023/12/18 00:11:38;;;;;;;1999.90;999.90;;;;;;;-2.38;86.19;98009.88;5095064;28;20139;-65
2023/12/18 00:14:06;;;;;;;1999.90;999.90;;;;;;;-2.41;86.15;98015.78;5094996;28;20047;-61
2023/12/18 00:16:34;;;;;;;1999.90;999.90;;;;;;;-2.47;86.13;98010.41;5094842;28;20048;-62
2023/12/18 00:19:03;;;;;;;1999.90;999.90;;;;;;;-2.54;86.68;98008.44;5094878;28;20090;-63
2023/12/18 00:21:31;;;;;;;1999.90;999.90;;;;;;;-2.65;87.35;98005.47;5094650;28;20056;-65
2023/12/18 00:23:59;;;;;;;1999.90;999.90;;;;;;;-2.67;87.34;98008.00;5094622;28;20485;-62
2023/12/18 00:26:26;;;;;;;1999.90;999.90;;;;;;;-2.63;87.46;98006.41;5095051;28;20052;-65
2023/12/18 00:28:53;;;;;;;1999.90;999.90;;;;;;;-2.60;87.10;97993.72;5094547;28;20044;-61
2023/12/18 00:31:20;;;;;;;1999.90;999.90;;;;;;;-2.54;86.70;98003.31;5094425;28;20395;-64
2023/12/18 00:33:49;;;;;;;1999.90;999.90;;;;;;;-2.49;86.63;98003.50;5094558;28;20075;-63
2023/12/18 00:36:16;;;;;;;1999.90;999.90;;;;;;;-2.50;87.78;98001.75;5094476;28;20054;-64
2023/12/18 00:38:43;;;;;;;1999.90;999.90;;;;;;;-2.50;88.22;98005.16;5093974;28;20482;-63
2023/12/18 00:41:10;;;;;;;1999.90;999.90;;;;;;;-2.51;87.82;98006.00;5094066;28;20464;-64
2023/12/18 00:43:38;;;;;;;1999.90;999.90;;;;;;;-2.48;87.79;97995.84;5094569;28;20207;-61
2023/12/18 00:46:06;;;;;;;1999.90;999.90;;;;;;;-2.50;87.56;98004.31;5094192;28;20521;-62
2023/12/18 00:48:35;;;;;;;1999.90;999.90;;;;;;;-2.46;87.62;97995.91;5094490;28;20056;-61
2023/12/18 00:51:05;;;;;;;1999.90;999.90;;;;;;;-2.47;87.29;97997.59;5094540;28;20052;-64
2023/12/18 00:53:32;;;;;;;1999.90;999.90;;;;;;;-2.59;87.59;97992.03;5094431;28;20495;-62
2023/12/18 00:56:00;;;;;;;1999.90;999.90;;;;;;;-2.65;88.46;97996.91;5094104;28;20120;-62
2023/12/18 00:58:27;;;;;;;1999.90;999.90;;;;;;;-2.57;88.34;97990.38;5093984;28;20047;-62
2023/12/18 01:00:54;;;;;;;1999.90;999.90;;;;;;;-2.61;88.19;97986.84;5093941;28;20051;-61
2023/12/18 01:03:22;;;;;;;1999.90;999.90;;;;;;;-2.56;87.98;97985.31;5093812;28;20565;-65
2023/12/18 01:05:50;;;;;;;1999.90;999.90;;;;;;;-2.52;87.98;97978.63;5093868;28;20486;-63
2023/12/18 01:08:19;;;;;;;1999.90;999.90;;;;;;;-2.47;87.75;97976.22;5093915;28;20077;-63
2023/12/18 01:10:47;;;;;;;1999.90;999.90;;;;;;;-2.39;88.28;97974.81;5093854;28;20071;-62
2023/12/18 01:13:15;;;;;;;1999.90;999.90;;;;;;;-2.34;88.28;97973.31;5093866;28;20054;-65
2023/12/18 01:15:42;;;;;;;1999.90;999.90;;;;;;;-2.31;87.82;97975.97;5093782;28;20048;-61
2023/12/18 01:18:09;;;;;;;1999.90;999.90;;;;;;;-2.29;87.67;97966.63;5093611;28;20052;-63
2023/12/18 01:20:37;;;;;;;1999.90;999.90;;;;;;;-2.29;87.28;97958.06;5093848;28;20513;-62
2023/12/18 01:23:05;;;;;;;1999.90;999.90;;;;;;;-2.24;87.14;97959.09;5093593;28;20044;-65
2023/12/18 01:25:33;;;;;;;1999.90;999.90;;;;;;;-2.20;86.51;97955.81;5093510;28;20080;-63
2023/12/18 01:28:01;;;;;;;1999.90;999.90;;;;;;;-2.17;86.03;97960.19;5093575;28;20126;-61
2023/12/18 01:30:28;;;;;;;1999.90;999.90;;;;;;;-2.18;85.60;97953.31;5093316;28;20048;-63
2023/12/18 01:32:55;;;;;;;1999.90;999.90;;;;;;;-2.25;85.72;97967.63;5093660;28;20044;-60
2023/12/18 01:35:22;;;;;;;1999.90;999.90;;;;;;;-2.30;86.01;97956.31;5093463;28;20044;-64
2023/12/18 01:37:49;;;;;;;1999.90;999.90;;;;;;;-2.26;85.89;97954.75;5093563;28;20048;-62
2023/12/18 01:40:16;;;;;;;1999.90;999.90;;;;;;;-2.38;86.40;97971.41;5093404;28;20052;-65
2023/12/18 01:42:46;;;;;;;1999.90;999.90;;;;;;;-2.38;86.19;97958.59;5093347;28;20443;-64
2023/12/18 01:45:13;;;;;;;1999.90;999.90;;;;;;;-2.52;86.52;97959.78;5093322;28;20052;-66
2023/12/18 01:47:41;;;;;;;1999.90;999.90;;;;;;;-2.46;86.97;97963.47;5093297;28;20767;-65
2023/12/18 01:50:09;;;;;;;1999.90;999.90;;;;;;;-2.41;86.90;97955.91;5093164;28;20502;-65
2023/12/18 01:52:37;;;;;;;1999.90;999.90;;;;;;;-2.34;87.79;97957.91;5093056;28;20044;-62
2023/12/18 01:55:05;;;;;;;1999.90;999.90;;;;;;;-2.28;87.91;97952.97;5093180;28;20566;-66
2023/12/18 01:57:33;;;;;;;1999.90;999.90;;;;;;;-2.36;87.37;97956.09;5093483;28;20052;-62
2023/12/18 02:00:03;;;;;;;1999.90;999.90;;;;;;;-2.31;87.34;97954.59;5093002;28;20074;-62
2023/12/18 02:02:30;;;;;;;1999.90;999.90;;;;;;;-2.24;87.30;97951.41;5093222;28;20119;-61
2023/12/18 02:04:57;;;;;;;1999.90;999.90;;;;;;;-2.25;86.55;97954.81;5093278;28;20048;-64
2023/12/18 02:07:26;;;;;;;1999.90;999.90;;;;;;;-2.24;85.86;97956.53;5093073;28;20135;-63
2023/12/18 02:09:54;;;;;;;1999.90;999.90;;;;;;;-2.23;85.08;97947.16;5093038;28;20149;-62
2023/12/18 02:12:21;;;;;;;1999.90;999.90;;;;;;;-2.30;85.29;97946.94;5093353;28;20048;-65
2023/12/18 02:14:48;;;;;;;1999.90;999.90;;;;;;;-2.29;85.33;97941.00;5093033;28;20555;-62
2023/12/18 02:17:16;;;;;;;1999.90;999.90;;;;;;;-2.29;85.14;97934.97;5092897;28;20486;-62
2023/12/18 02:19:43;;;;;;;1999.90;999.90;;;;;;;-2.30;85.30;97935.81;5093240;28;20044;-63
2023/12/18 02:22:10;;;;;;;1999.90;999.90;;;;;;;-2.30;85.19;97934.13;5092847;28;20076;-61
2023/12/18 02:24:39;;;;;;;1999.90;999.90;;;;;;;-2.39;85.54;97933.78;5092802;28;20454;-64
2023/12/18 02:27:06;;;;;;;1999.90;999.90;;;;;;;-2.38;85.55;97924.41;5092925;28;20089;-64
2023/12/18 02:29:33;;;;;;;1999.90;999.90;;;;;;;-2.41;85.59;97920.91;5092776;28;20390;-64
2023/12/18 02:32:01;;;;;;;1999.90;999.90;;;;;;;-2.40;85.43;97921.81;5092816;28;20383;-62
2023/12/18 02:34:28;;;;;;;1999.90;999.90;;;;;;;-2.43;85.53;97925.13;5092898;28;20087;-63
2023/12/18 02:36:55;;;;;;;1999.90;999.90;;;;;;;-2.44;85.71;97918.25;5093058;28;20040;-64
2023/12/18 02:39:22;;;;;;;1999.90;999.90;;;;;;;-2.49;85.61;97911.22;5092845;28;20083;-65
2023/12/18 02:41:51;;;;;;;1999.90;999.90;;;;;;;-2.48;86.19;97918.06;5092697;28;20059;-64
2023/12/18 02:44:18;;;;;;;1999.90;999.90;;;;;;;-2.44;86.29;97928.50;5092672;28;20044;-60
2023/12/18 02:46:45;;;;;;;1999.90;999.90;;;;;;;-2.46;86.18;97927.59;5092746;28;20048;-65
2023/12/18 02:49:12;;;;;;;1999.90;999.90;;;;;;;-2.44;86.13;97922.53;5092743;28;20079;-65
2023/12/18 02:51:39;;;;;;;1999.90;999.90;;;;;;;-2.47;86.34;97930.09;5092682;28;20079;-65
2023/12/18 02:54:06;;;;;;;1999.90;999.90;;;;;;;-2.50;86.35;97923.16;5092540;28;20498;-63
2023/12/18 02:56:33;;;;;;;1999.90;999.90;;;;;;;-2.56;86.78;97921.22;5092792;28;20048;-64
2023/12/18 02:59:01;;;;;;;1999.90;999.90;;;;;;;-2.61;87.23;97924.44;5092514;28;20127;-60
2023/12/18 03:01:29;;;;;;;1999.90;999.90;;;;;;;-2.59;86.85;97918.56;5092531;28;20102;-65
2023/12/18 03:03:56;;;;;;;1999.90;999.90;;;;;;;-2.59;86.85;97916.00;5095342;28;20044;-62
2023/12/18 03:06:23;;;;;;;1999.90;999.90;;;;;;;-2.57;86.52;97913.50;5096268;28;20052;-64
2023/12/18 03:08:50;;;;;;;1999.90;999.90;;;;;;;-2.59;86.65;97915.16;5096147;28;20040;-64
2023/12/18 03:11:17;;;;;;;1999.90;999.90;;;;;;;-2.61;86.53;97917.66;5096190;28;20048;-61
2023/12/18 03:13:44;;;;;;;1999.90;999.90;;;;;;;-2.57;86.74;97916.06;5096176;28;20044;-61
2023/12/18 03:16:13;;;;;;;1999.90;999.90;;;;;;;-2.58;86.60;97912.63;5096408;28;20094;-63
2023/12/18 03:18:40;;;;;;;1999.90;999.90;;;;;;;-2.60;85.96;97911.69;5096065;28;20044;-64
2023/12/18 03:21:10;;;;;;;1999.90;999.90;;;;;;;-2.70;86.63;97918.19;5095929;28;20113;-64
2023/12/18 03:23:37;;;;;;;1999.90;999.90;;;;;;;-2.70;86.84;97923.31;5095987;28;20062;-64
2023/12/18 03:26:04;;;;;;;1999.90;999.90;;;;;;;-2.77;86.92;97917.91;5096059;28;20389;-64
2023/12/18 03:28:32;;;;;;;1999.90;999.90;;;;;;;-2.70;87.07;97910.50;5095866;28;20048;-61
2023/12/18 03:31:00;;;;;;;1999.90;999.90;;;;;;;-2.67;86.63;97910.63;5095761;28;20048;-65
2023/12/18 03:33:28;;;;;;;1999.90;999.90;;;;;;;-2.63;86.37;97898.78;5095987;28;20421;-63
2023/12/18 03:35:55;;;;;;;1999.90;999.90;;;;;;;-2.62;86.33;97909.91;5095681;28;20130;-62
2023/12/18 03:38:22;;;;;;;1999.90;999.90;;;;;;;-2.61;86.26;97909.06;5095595;28;20134;-64
2023/12/18 03:40:49;;;;;;;1999.90;999.90;;;;;;;-2.61;86.29;97907.41;5095535;28;20379;-65
2023/12/18 03:43:16;;;;;;;1999.90;999.90;;;;;;;-2.61;86.10;97911.63;5095619;28;20052;-66
2023/12/18 03:45:43;;;;;;;1999.90;999.90;;;;;;;-2.59;86.27;97923.69;5095625;28;20076;-61
2023/12/18 03:48:10;;;;;;;1999.90;999.90;;;;;;;-2.58;86.34;97914.31;5095751;28;20040;-61
2023/12/18 03:50:39;;;;;;;1999.90;999.90;;;;;;;-2.54;86.29;97924.75;5095408;28;20135;-61
2023/12/18 03:53:08;;;;;;;1999.90;999.90;;;;;;;-2.55;86.08;97917.00;5095380;28;20568;-60
2023/12/18 03:55:35;;;;;;;1999.90;999.90;;;;;;;-2.56;85.83;97920.38;5095468;28;20056;-63
2023/12/18 03:58:02;;;;;;;1999.90;999.90;;;;;;;-2.65;85.70;97914.91;5095506;28;20075;-64
2023/12/18 04:00:30;;;;;;;1999.90;999.90;;;;;;;-2.64;85.57;97924.34;5095433;28;20113;-64
2023/12/18 04:02:57;;;;;;;1999.90;999.90;;;;;;;-2.63;85.85;97920.94;5095088;28;20101;-63
2023/12/18 04:05:24;;;;;;;1999.90;999.90;;;;;;;-2.64;85.45;97920.09;5095129;28;20044;-61
2023/12/18 04:07:53;;;;;;;1999.90;999.90;;;;;;;-2.63;85.09;97908.13;5095120;28;20044;-63
2023/12/18 04:10:20;;;;;;;1999.90;999.90;;;;;;;-2.65;85.58;97914.91;5095181;28;20044;-62
2023/12/18 04:12:47;;;;;;;1999.90;999.90;;;;;;;-2.76;85.83;97917.06;5095185;28;20078;-63
2023/12/18 04:15:14;;;;;;;1999.90;999.90;;;;;;;-2.80;86.15;97924.66;5094005;28;20067;-63
2023/12/18 04:17:41;;;;;;;1999.90;999.90;;;;;;;-2.87;86.70;97926.91;5094852;28;20126;-64
2023/12/18 04:20:09;;;;;;;1999.90;999.90;;;;;;;-2.86;87.00;97923.56;5094803;28;20562;-65
2023/12/18 04:22:36;;;;;;;1999.90;999.90;;;;;;;-2.80;86.86;97919.53;5094999;28;20099;-60
2023/12/18 04:25:06;;;;;;;1999.90;999.90;;;;;;;-2.76;86.93;97912.84;5094835;28;20086;-63
2023/12/18 04:27:33;;;;;;;1999.90;999.90;;;;;;;-2.73;86.66;97915.50;5094699;28;20047;-61
2023/12/18 04:30:00;;;;;;;1999.90;999.90;;;;;;;-2.71;86.56;97913.84;5094430;28;20105;-65
2023/12/18 04:32:27;;;;;;;1999.90;999.90;;;;;;;-2.73;86.30;97906.94;5094492;28;20047;-63
2023/12/18 04:34:55;;;;;;;1999.90;999.90;;;;;;;-2.71;86.23;97908.72;5094587;28;20139;-65
2023/12/18 04:37:22;;;;;;;1999.90;999.90;;;;;;;-2.72;86.74;97911.25;5094643;28;20062;-61
2023/12/18 04:39:49;;;;;;;1999.90;999.90;;;;;;;-2.64;86.51;97916.66;5094521;28;20188;-64
2023/12/18 04:42:17;;;;;;;1999.90;999.90;;;;;;;-2.64;86.17;97907.28;5094402;28;20051;-61
2023/12/18 04:44:44;;;;;;;1999.90;999.90;;;;;;;-2.67;85.75;97912.28;5094285;28;20066;-64
2023/12/18 04:47:12;;;;;;;1999.90;999.90;;;;;;;-2.64;85.46;97914.09;5094313;28;20052;-63
2023/12/18 04:49:39;;;;;;;1999.90;999.90;;;;;;;-2.65;85.28;97917.47;5094228;28;20052;-64
2023/12/18 04:52:07;;;;;;;1999.90;999.90;;;;;;;-2.71;85.43;97913.84;5094193;28;20050;-63
2023/12/18 04:54:34;;;;;;;1999.90;999.90;;;;;;;-2.67;85.39;97909.72;5094151;28;20052;-64
2023/12/18 04:57:01;;;;;;;1999.90;999.90;;;;;;;-2.65;85.50;97900.41;5094050;28;20497;-62
2023/12/18 04:59:30;;;;;;;1999.90;999.90;;;;;;;-2.71;85.44;97900.19;5094108;28;20105;-63
2023/12/18 05:01:58;;;;;;;1999.90;999.90;;;;;;;-2.76;85.30;97902.59;5093950;28;20056;-62
2023/12/18 05:04:25;;;;;;;1999.90;999.90;;;;;;;-2.78;85.49;97901.66;5093962;28;20044;-63
2023/12/18 05:06:52;;;;;;;1999.90;999.90;;;;;;;-2.73;85.42;97892.44;5094111;28;20461;-64
2023/12/18 05:09:19;;;;;;;1999.90;999.90;;;;;;;-2.76;85.69;97892.34;5093878;28;20076;-62
2023/12/18 05:11:46;;;;;;;1999.90;999.90;;;;;;;-2.71;85.94;97887.38;5093917;28;20109;-64
2023/12/18 05:14:14;;;;;;;1999.90;999.90;;;;;;;-2.73;85.47;97889.88;5093773;28;20044;-60
2023/12/18 05:16:42;;;;;;;1999.90;999.90;;;;;;;-2.77;85.76;97887.16;5093647;28;20502;-62
2023/12/18 05:19:10;;;;;;;1999.90;999.90;;;;;;;-2.80;85.99;97895.63;5093765;28;20047;-64
2023/12/18 05:21:38;;;;;;;1999.90;999.90;;;;;;;-2.86;86.82;97893.66;5093405;28;20486;-61
2023/12/18 05:24:06;;;;;;;1999.90;999.90;;;;;;;-2.83;86.68;97890.38;5093711;28;20048;-64
2023/12/18 05:26:33;;;;;;;1999.90;999.90;;;;;;;-2.79;86.80;97882.81;5093226;28;20203;-64
2023/12/18 05:29:01;;;;;;;1999.90;999.90;;;;;;;-2.77;86.65;97875.19;5093502;28;20048;-65
2023/12/18 05:31:28;;;;;;;1999.90;999.90;;;;;;;-2.70;86.25;97878.88;5093546;28;20056;-61
2023/12/18 05:33:57;;;;;;;1999.90;999.90;;;;;;;-2.74;86.22;97871.91;5093615;28;20047;-61
2023/12/18 05:36:24;;;;;;;1999.90;999.90;;;;;;;-2.75;86.35;97862.44;5093481;28;20050;-61
2023/12/18 05:38:51;;;;;;;1999.90;999.90;;;;;;;-2.85;86.39;97866.38;5093612;28;20071;-65
2023/12/18 05:41:19;;;;;;;1999.90;999.90;;;;;;;-2.86;86.49;97877.44;5093305;28;20044;-64
2023/12/18 05:43:46;;;;;;;1999.90;999.90;;;;;;;-2.82;86.36;97869.94;5093306;28;20043;-62
2023/12/18 05:46:18;;;;;;;1999.90;999.90;;;;;;;-2.84;86.45;97869.00;5093315;28;20044;-65
2023/12/18 05:48:45;;;;;;;1999.90;999.90;;;;;;;-2.84;85.87;97883.47;5093391;28;20078;-61
2023/12/18 05:51:24;;;;;;;1999.90;999.90;;;;;;;-2.80;86.72;97870.00;5093321;28;20079;-65
2023/12/18 05:53:51;;;;;;;1999.90;999.90;;;;;;;-2.85;86.91;97874.06;5093283;28;20082;-65
2023/12/18 05:56:18;;;;;;;1999.90;999.90;;;;;;;-2.88;87.49;97863.69;5093460;28;20078;-62
2023/12/18 05:58:45;;;;;;;1999.90;999.90;;;;;;;-2.84;87.52;97873.22;5093407;28;20047;-63
2023/12/18 06:01:12;;;;;;;1999.90;999.90;;;;;;;-2.74;87.40;97877.88;5093067;28;20059;-61
2023/12/18 06:03:39;;;;;;;1999.90;999.90;;;;;;;-2.74;87.62;97879.59;5093066;28;20056;-64
2023/12/18 06:06:07;;;;;;;1999.90;999.90;;;;;;;-2.66;87.27;97888.41;5093325;28;20128;-62
2023/12/18 06:08:36;;;;;;;1999.90;999.90;;;;;;;-2.58;87.01;97884.44;5093046;28;20044;-61
2023/12/18 06:11:05;;;;;;;1999.90;999.90;;;;;;;-2.50;86.89;97888.97;5093045;28;20417;-64
2023/12/18 06:13:32;;;;;;;1999.90;999.90;;;;;;;-2.46;86.64;97904.50;5093049;28;20083;-61
2023/12/18 06:16:00;;;;;;;1999.90;999.90;;;;;;;-2.39;86.24;97899.56;5092991;28;20072;-62
2023/12/18 06:18:27;;;;;;;1999.90;999.90;;;;;;;-2.36;86.00;97894.56;5093076;28;20055;-65
2023/12/18 06:20:54;;;;;;;1999.90;999.90;;;;;;;-2.33;85.82;97899.81;5093019;28;20081;-62
2023/12/18 06:23:21;;;;;;;1999.90;999.90;;;;;;;-2.03;87.51;97894.00;5092725;28;20056;-61
2023/12/18 06:25:50;;;;;;;1999.90;999.90;;;;;;;-0.68;87.85;97906.69;5093034;28;20040;-63
2023/12/18 06:28:17;;;;;;;1999.90;999.90;;;;;;;1.29;80.71;97904.59;5092924;28;20083;-61
2023/12/18 06:30:45;;;;;;;1999.90;999.90;;;;;;;3.26;70.11;97916.56;5092770;28;20144;-64
2023/12/18 06:33:12;;;;;;;1999.90;999.90;;;;;;;4.94;61.96;97937.22;5092864;28;20461;-65
2023/12/18 06:35:39;;;;;;;1999.90;999.90;;;;;;;6.60;57.88;97940.44;5092864;28;20048;-62
2023/12/18 06:38:06;;;;;;;1999.90;999.90;;;;;;;8.14;51.82;97916.56;5094463;28;20486;-63
2023/12/18 06:40:34;;;;;;;1999.90;999.90;;;;;;;9.53;47.91;97914.47;5096780;28;20046;-62
2023/12/18 06:43:02;;;;;;;1999.90;999.90;;;;;;;10.68;45.37;97919.88;5096742;28;20048;-63
2023/12/18 06:45:29;;;;;;;1999.90;999.90;;;;;;;11.84;42.62;97922.13;5096484;28;20048;-63
2023/12/18 06:47:57;;;;;;;1999.90;999.90;;;;;;;12.81;38.18;97919.06;5096562;28;20509;-63
2023/12/18 06:50:24;;;;;;;1999.90;999.90;;;;;;;13.56;37.60;97917.16;5096606;28;20055;-65
2023/12/18 06:52:53;;;;;;;1999.90;999.90;;;;;;;14.36;36.28;97921.81;5096890;28;20079;-63
2023/12/18 06:55:21;;;;;;;1999.90;999.90;;;;;;;15.06;35.00;97931.91;5096621;28;20060;-62
2023/12/18 06:57:49;;;;;;;1999.90;999.90;;;;;;;15.76;33.05;97918.00;5096554;28;20068;-63
2023/12/18 07:00:22;;;;;;;1999.90;999.90;;;;;;;16.29;32.07;97927.47;5095963;28;20048;-63
2023/12/18 07:02:50;;;;;;;1999.90;999.90;;;;;;;16.67;31.20;97924.22;5096333;28;20048;-65
2023/12/18 07:05:19;;;;;;;1999.90;999.90;;;;;;;16.99;31.02;97920.28;5096249;28;20066;-62
2023/12/18 07:07:46;;;;;;;1999.90;999.90;;;;;;;17.53;30.68;97915.38;5096060;28;20139;-65
2023/12/18 07:10:13;;;;;;;1999.90;999.90;;;;;;;18.06;30.09;97917.38;5096103;28;20414;-63
2023/12/18 07:12:40;;;;;;;1999.90;999.90;;;;;;;18.38;29.52;97914.19;5096122;28;20048;-63
2023/12/18 07:15:08;;;;;;;1999.90;999.90;;;;;;;18.84;28.38;97916.38;5096264;28;20079;-64
2023/12/18 07:17:37;;;;;;;1999.90;999.90;;;;;;;19.24;28.41;97916.19;5095997;28;20048;-63
2023/12/18 07:20:05;;;;;;;1999.90;999.90;;;;;;;19.47;27.70;97913.28;5096008;28;20052;-62
2023/12/18 07:22:34;;;;;;;1999.90;999.90;;;;;;;19.66;27.96;97913.97;5095844;28;20102;-64
2023/12/18 07:25:01;;;;;;;1999.90;999.90;;;;;;;19.80;28.18;97907.94;5095842;28;20047;-64
2023/12/18 07:27:28;;;;;;;1999.90;999.90;;;;;;;19.97;27.43;97906.16;5095864;28;20482;-64
2023/12/18 07:29:55;;;;;;;1999.90;999.90;;;;;;;20.11;27.39;97908.09;5095684;28;20052;-62
2023/12/18 07:32:22;;;;;;;1999.90;999.90;;;;;;;20.45;27.37;97900.91;5096025;28;20044;-62
2023/12/18 07:34:51;;;;;;;1999.90;999.90;;;;;;;20.61;26.85;97899.13;5095745;28;20477;-61
2023/12/18 07:37:18;;;;;;;1999.90;999.90;;;;;;;20.84;26.24;97897.81;5095627;28;20494;-63
2023/12/18 07:39:45;;;;;;;1999.90;999.90;;;;;;;21.43;25.49;97889.00;5095456;28;20489;-63
2023/12/18 07:42:12;;;;;;;1999.90;999.90;;;;;;;21.74;25.30;97893.41;5095551;28;20466;-65
2023/12/18 07:44:39;;;;;;;1999.90;999.90;;;;;;;22.08;25.10;97892.16;5095560;28;20131;-65
2023/12/18 07:47:07;;;;;;;1999.90;999.90;;;;;;;22.41;24.35;97894.53;5095506;28;20083;-63
2023/12/18 07:49:35;;;;;;;1999.90;999.90;;;;;;;22.63;23.52;97894.00;5095198;28;20126;-66
2023/12/18 07:52:04;;;;;;;1999.90;999.90;;;;;;;22.92;23.26;97898.34;5095339;28;20520;-65
2023/12/18 07:54:31;;;;;;;1999.90;999.90;;;;;;;23.10;22.57;97897.13;5095344;28;20083;-63
2023/12/18 07:56:58;;;;;;;1999.90;999.90;;;;;;;23.33;22.74;97893.84;5095507;28;20466;-64
2023/12/18 07:59:25;;;;;;;1999.90;999.90;;;;;;;23.60;22.99;97888.41;5095542;28;20143;-65
2023/12/18 08:01:52;;;;;;;1999.90;999.90;;;;;;;23.72;22.57;97885.84;5095089;28;20077;-62
2023/12/18 08:04:19;;;;;;;1999.90;999.90;;;;;;;23.87;21.97;97893.72;5095097;28;20401;-65
2023/12/18 08:06:49;;;;;;;1999.90;999.90;;;;;;;24.00;22.46;97899.03;5095160;28;20055;-65
2023/12/18 08:09:18;;;;;;;1999.90;999.90;;;;;;;24.10;23.25;97887.56;5095138;28;20559;-65
2023/12/18 08:11:45;;;;;;;1999.90;999.90;;;;;;;24.31;22.49;97888.81;5095043;28;20044;-62
2023/12/18 08:14:13;;;;;;;47.40;44.70;;;;;;;24.06;21.73;97883.44;5094936;28;20067;-63
2023/12/18 08:16:40;;;;;;;49.13;46.38;;;;;;;24.09;22.04;97891.22;5095052;28;20605;-61
2023/12/18 08:19:08;;;;;;;52.20;49.35;;;;;;;24.24;22.83;97880.41;5094809;28;20050;-63
2023/12/18 08:21:35;;;;;;;41.50;39.13;;;;;;;24.20;22.90;97882.44;5094769;28;20147;-65
2023/12/18 08:24:02;;;;;;;44.17;41.78;;;;;;;24.33;22.08;97873.53;5094595;28;20489;-63
2023/12/18 08:26:30;;;;;;;42.88;40.58;;;;;;;24.42;21.98;97880.00;5094868;28;20131;-60
2023/12/18 08:28:58;;;;;;;55.70;52.63;;;;;;;24.08;22.18;97877.97;5094883;28;20048;-63
2023/12/18 08:31:25;;;;;;;50.35;47.65;;;;;;;23.65;22.86;97873.88;5094663;28;20041;-65
2023/12/18 08:33:52;;;;;;;1512.35;761.63;;;;;;;22.94;24.13;97878.63;5094997;28;20044;-62
2023/12/18 08:36:19;;;;;;;1999.90;999.90;;;;;;;22.38;21.88;97870.75;5094650;28;20074;-61
2023/12/18 08:38:46;;;;;;;1999.90;999.90;;;;;;;21.56;22.16;97867.84;5094461;28;20048;-64
2023/12/18 08:41:13;;;;;;;1999.90;999.90;;;;;;;20.75;26.46;97864.66;5094604;28;20143;-62
2023/12/18 08:43:43;;;;;;;1999.90;999.90;;;;;;;20.05;27.76;97857.97;5094258;28;20146;-65
2023/12/18 08:46:09;;;;;;;1999.90;999.90;;;;;;;19.28;28.80;97863.81;5094364;28;20138;-65
2023/12/18 08:48:36;;;;;;;1999.90;999.90;;;;;;;18.61;26.32;97857.44;5094246;28;20048;-65
2023/12/18 08:51:03;;;;;;;1999.90;999.90;;;;;;;18.21;27.43;97851.44;5094339;28;20044;-63
2023/12/18 08:53:30;;;;;;;1999.90;999.90;;;;;;;17.85;30.58;97843.34;5094301;28;20407;-63
2023/12/18 08:55:57;;;;;;;1999.90;999.90;;;;;;;17.61;31.28;97848.03;5094047;28;20563;-63
2023/12/18 08:58:25;;;;;;;1999.90;999.90;;;;;;;17.43;30.12;97845.28;5094071;28;20414;-64
2023/12/18 09:00:53;;;;;;;1999.90;999.90;;;;;;;16.97;30.09;97833.13;5093646;28;20094;-62
2023/12/18 09:03:21;;;;;;;1999.90;999.90;;;;;;;16.62;31.66;97827.59;5094033;28;20083;-60
2023/12/18 09:05:48;;;;;;;1999.90;999.90;;;;;;;15.96;32.95;97830.22;5094283;28;20084;-64
2023/12/18 09:08:15;;;;;;;1999.90;999.90;;;;;;;15.01;33.57;97828.41;5094184;28;20055;-62
2023/12/18 09:10:42;;;;;;;1999.90;999.90;;;;;;;14.22;35.54;97829.28;5094211;28;20047;-61
2023/12/18 09:13:09;;;;;;;1999.90;999.90;;;;;;;13.63;36.21;97819.66;5093728;28;20505;-63
2023/12/18 09:15:40;;;;;;;1999.90;999.90;;;;;;;13.24;36.69;97812.88;5093965;28;20575;-60
2023/12/18 09:18:08;;;;;;;1999.90;999.90;;;;;;;12.96;37.73;97811.03;5093799;28;20052;-63
2023/12/18 09:20:35;;;;;;;1999.90;999.90;;;;;;;12.80;38.38;97799.19;5093914;28;20048;-65
2023/12/18 09:23:08;;;;;;;1999.90;999.90;;;;;;;12.55;38.85;97802.50;5093592;28;20101;-63
2023/12/18 09:25:35;;;;;;;1999.90;999.90;;;;;;;12.12;39.59;97795.66;5093684;28;20047;-62
2023/12/18 09:28:02;;;;;;;1999.90;999.90;;;;;;;11.95;41.00;97789.91;5093710;28;20473;-66
2023/12/18 09:30:29;;;;;;;1999.90;999.90;;;;;;;11.53;42.21;97796.94;5093426;28;20139;-63
2023/12/18 09:32:56;;;;;;;1999.90;999.90;;;;;;;11.18;43.42;97795.94;5093551;28;20048;-62
2023/12/18 09:35:25;;;;;;;1999.90;999.90;;;;;;;11.05;41.43;97795.34;5093492;28;20126;-62
2023/12/18 09:37:52;;;;;;;1999.90;999.90;;;;;;;11.01;41.55;97786.66;5093599;28;20054;-65
2023/12/18 09:40:19;;;;;;;1999.90;999.90;;;;;;;10.97;41.11;97777.16;5093448;28;20052;-64
2023/12/18 09:42:52;;;;;;;1999.90;999.90;;;;;;;10.89;41.36;97769.44;5093241;28;20040;-65
2023/12/18 09:45:22;;;;;;;1999.90;999.90;;;;;;;10.95;40.55;97769.31;5093349;28;20121;-64
2023/12/18 09:47:49;;;;;;;1999.90;999.90;;;;;;;11.06;40.23;97771.75;5093315;28;20383;-63
2023/12/18 09:50:17;;;;;;;1999.90;999.90;;;;;;;11.05;40.42;97764.75;5093359;28;20048;-64
2023/12/18 09:52:54;;;;;;;1999.90;999.90;;;;;;;11.07;40.18;97749.88;5093201;28;20048;-64
2023/12/18 09:55:21;;;;;;;1999.90;999.90;;;;;;;10.97;41.03;97740.50;5093466;28;20093;-64
2023/12/18 09:57:50;;;;;;;1999.90;999.90;;;;;;;10.89;38.15;97740.66;5093275;28;20097;-62
2023/12/18 10:00:20;;;;;;;1999.90;999.90;;;;;;;10.93;38.87;97738.84;5093184;28;20054;-65
2023/12/18 10:02:48;;;;;;;1999.90;999.90;;;;;;;10.96;39.21;97734.38;5093281;28;20055;-64
2023/12/18 10:05:15;;;;;;;1999.90;999.90;;;;;;;10.95;39.36;97748.38;5093064;28;20131;-63
2023/12/18 10:07:42;;;;;;;1999.90;999.90;;;;;;;11.05;36.88;97743.81;5093346;28;20044;-64
2023/12/18 10:10:11;;;;;;;1999.90;999.90;;;;;;;11.18;36.94;97740.94;5093079;28;20161;-65
2023/12/18 10:12:39;;;;;;;1999.90;999.90;;;;;;;11.25;37.49;97740.78;5095986;28;20044;-64
2023/12/18 10:15:07;;;;;;;1999.90;999.90;;;;;;;11.24;36.44;97739.06;5097289;28;20131;-62
2023/12/18 10:17:34;;;;;;;1999.90;999.90;;;;;;;11.18;36.90;97728.72;5097329;28;20109;-63
2023/12/18 10:20:03;;;;;;;1999.90;999.90;;;;;;;11.16;37.76;97727.88;5097145;28;20056;-65
2023/12/18 10:22:30;;;;;;;1999.90;999.90;;;;;;;11.14;36.35;97721.81;5097169;28;20490;-62
2023/12/18 10:24:58;;;;;;;1999.90;999.90;;;;;;;11.15;36.63;97726.16;5097038;28;20151;-64
2023/12/18 10:27:27;;;;;;;1999.90;999.90;;;;;;;11.19;36.30;97719.94;5097158;28;20122;-64
2023/12/18 10:29:55;;;;;;;1999.90;999.90;;;;;;;11.18;36.86;97723.47;5096771;28;20055;-62
2023/12/18 10:32:23;;;;;;;1999.90;999.90;;;;;;;11.08;35.96;97721.94;5096907;28;20048;-62
2023/12/18 10:34:51;;;;;;;1999.90;999.90;;;;;;;11.09;37.56;97715.81;5096914;28;20091;-63
2023/12/18 10:37:22;;;;;;;1999.90;999.90;;;;;;;11.08;37.27;97717.56;5096680;28;20079;-65
2023/12/18 10:39:52;;;;;;;1999.90;999.90;;;;;;;11.08;38.32;97707.09;5096774;28;20512;-63
2023/12/18 10:42:24;;;;;;;1999.90;999.90;;;;;;;11.15;37.48;97707.81;5096711;28;20132;-66
2023/12/18 10:44:55;;;;;;;1999.90;999.90;;;;;;;11.21;37.86;97706.81;5096656;28;20109;-65
2023/12/18 10:47:22;;;;;;;1999.90;999.90;;;;;;;11.17;38.30;97705.19;5097034;28;20048;-63
2023/12/18 10:49:52;;;;;;;1999.90;999.90;;;;;;;11.18;37.43;97697.28;5096510;28;20050;-65
2023/12/18 10:52:21;;;;;;;1999.90;999.90;;;;;;;11.21;38.04;97699.84;5096545;28;20040;-66
2023/12/18 10:54:49;;;;;;;1999.90;999.90;;;;;;;11.21;36.99;97701.59;5096383;28;20563;-63
2023/12/18 10:57:18;;;;;;;1999.90;999.90;;;;;;;11.27;38.26;97690.97;5096692;28;20070;-62